»·PEaware :: N915TB KSAN-KPSP

N915TB :: KSAN-KPSP

FLIGHT INFORMATION

Flight Status: Arrived
Operator: Privately registered:
United States
More flights under this callsign
Pilot: Jake M. (20491)
Aircraft: SOCATA TBM-900
(TBM9)
More flights by this aircraft type
Origin: KSAN San Diego Intl-Lindbergh
United States
Destination: KPSP Palm Springs Intl
United States
More flights between these airports :: More routes between these airports
Route: +
File this flight plan on PilotEdge
Remarks:
Altitude:
(Current/Filed)
11,000ft
Speed:
(Current/Filed)
280kts
Departed: 06-Jan-20 09:19 PM
Arrived: 06-Jan-20 10:00 PM
Distance/Time
Traveled:
74nm/0:41
Distance/Time
To Go:
Arrived

Flight Plot

Page will automatically refresh every two minutes.


Map Options




Map Legend


Flown Route
Filed Route
Departure Airport
Arrival Airport
Navaid (VOR, NDB)
Fix

Horizontal Profiles

Position Reports

Time Latitude Longitude Heading Altitude Ground
Speed
06-Jan-20 21:11 32.732784 -117.178447 214 19ft 0kts
06-Jan-20 21:12 32.732784 -117.178447 214 19ft 0kts
06-Jan-20 21:13 32.732784 -117.178447 214 19ft 0kts
06-Jan-20 21:14 32.732784 -117.178447 214 19ft 0kts
06-Jan-20 21:15 32.732784 -117.178447 214 19ft 0kts
06-Jan-20 21:16 32.731883 -117.178188 105 19ft 19kts
06-Jan-20 21:17 32.730210 -117.175517 261 20ft 18kts
06-Jan-20 21:18 32.738667 -117.210773 286 762ft 152kts
06-Jan-20 21:19 32.749178 -117.258180 286 2892ft 156kts
06-Jan-20 21:20 32.759309 -117.308467 286 5023ft 158kts
06-Jan-20 21:21 32.768428 -117.361022 253 6497ft 190kts
06-Jan-20 21:22 32.718365 -117.366133 161 6596ft 207kts
06-Jan-20 21:23 32.668129 -117.340484 111 7465ft 200kts
06-Jan-20 21:24 32.664869 -117.270359 91 7610ft 216kts
06-Jan-20 21:25 32.693182 -117.225973 31 10116ft 171kts
06-Jan-20 21:26 32.735435 -117.196967 28 11494ft 193kts
06-Jan-20 21:27 32.789421 -117.160913 28 11482ft 239kts
06-Jan-20 21:28 32.848924 -117.121193 28 11473ft 249kts
06-Jan-20 21:29 32.909450 -117.080723 28 11472ft 250kts
06-Jan-20 21:30 32.970505 -117.039839 28 11472ft 250kts
06-Jan-20 21:31 33.032678 -117.000181 26 11472ft 255kts
06-Jan-20 21:32 33.096251 -116.961144 26 11472ft 257kts
06-Jan-20 21:33 33.160127 -116.921908 26 11473ft 257kts
06-Jan-20 21:34 33.223351 -116.882999 26 11629ft 240kts
06-Jan-20 21:35 33.284580 -116.845400 26 11470ft 250kts
06-Jan-20 21:36 33.348094 -116.806086 26 11474ft 258kts
06-Jan-20 21:37 33.388696 -116.781224 25 11473ft 261kts
06-Jan-20 21:38 33.475859 -116.729055 0 11492ft 0kts
06-Jan-20 21:39 33.515283 -116.675610 99 11033ft 258kts
06-Jan-20 21:40 33.500281 -116.591437 101 9576ft 259kts
06-Jan-20 21:41 33.486176 -116.510499 101 9023ft 228kts
06-Jan-20 21:42 33.451248 -116.466973 208 8922ft 221kts
06-Jan-20 21:43 33.462876 -116.515509 13 8878ft 210kts
06-Jan-20 21:44 33.516618 -116.501858 2 9770ft 186kts
06-Jan-20 21:45 33.572556 -116.500152 0 10504ft 230kts
06-Jan-20 21:46 33.640553 -116.498195 0 10512ft 251kts
06-Jan-20 21:47 33.698615 -116.450411 43 9714ft 278kts
06-Jan-20 21:48 33.752782 -116.387347 44 8104ft 263kts
06-Jan-20 21:49 33.795971 -116.325479 68 8001ft 228kts
06-Jan-20 21:50 33.792529 -116.246927 116 6612ft 255kts
06-Jan-20 21:51 33.737780 -116.198160 168 5999ft 238kts
06-Jan-20 21:52 33.694549 -116.203044 200 6003ft 231kts
06-Jan-20 21:53 33.656628 -116.240818 238 5835ft 237kts
06-Jan-20 21:54 33.648660 -116.320581 289 4746ft 253kts
06-Jan-20 21:55 33.693549 -116.382153 323 3722ft 242kts
06-Jan-20 21:56 33.745278 -116.429855 322 2402ft 231kts
06-Jan-20 21:57 33.787702 -116.469115 320 1258ft 132kts
06-Jan-20 21:58 33.814056 -116.493813 321 576ft 93kts
06-Jan-20 21:59 33.828322 -116.506494 313 420ft 22kts
06-Jan-20 22:00 33.828659 -116.510613 270 429ft 16kts

Navigation Log

Ident Type
Flight plan parsing failed, navigation log unavailable